createdAt,value
2023-09-06T00:01:10.809Z,17.25
2023-09-06T00:06:12.947Z,17.24
2023-09-06T00:11:16.258Z,17.16
2023-09-06T00:16:18.828Z,17.04
2023-09-06T00:21:21.048Z,17.07
2023-09-06T00:26:23.170Z,17.04
2023-09-06T00:31:25.445Z,16.92
2023-09-06T00:36:33.382Z,16.89
2023-09-06T00:41:40.397Z,16.82
2023-09-06T00:46:42.878Z,16.71
2023-09-06T00:51:45.091Z,16.69
2023-09-06T00:56:47.223Z,16.64
2023-09-06T01:01:49.473Z,16.55
2023-09-06T01:06:57.392Z,16.55
2023-09-06T01:12:00.270Z,16.53
2023-09-06T01:17:02.838Z,16.52
2023-09-06T01:22:41.627Z,16.55
2023-09-06T01:27:45.495Z,16.51
2023-09-06T01:32:47.829Z,16.38
2023-09-06T01:37:52.576Z,16.35
2023-09-06T01:42:55.343Z,16.23
2023-09-06T01:47:57.534Z,16.27
2023-09-06T01:52:59.712Z,16.30
2023-09-06T01:58:01.946Z,16.10
2023-09-06T02:03:04.749Z,16.10
2023-09-06T02:08:07.092Z,16.06
2023-09-06T02:13:09.344Z,16.01
2023-09-06T02:18:16.375Z,16.00
2023-09-06T02:23:19.051Z,15.88
2023-09-06T02:28:21.195Z,15.95
2023-09-06T02:33:23.525Z,15.85
2023-09-06T02:38:26.338Z,15.78
2023-09-06T02:43:28.546Z,15.67
2023-09-06T02:48:31.007Z,15.59
2023-09-06T02:53:34.148Z,15.65
2023-09-06T02:58:38.499Z,15.57
2023-09-06T03:03:43.516Z,15.53
2023-09-06T03:08:47.248Z,15.50
2023-09-06T03:13:49.319Z,15.47
2023-09-06T03:18:54.122Z,15.58
2023-09-06T03:23:56.270Z,15.38
2023-09-06T03:28:58.404Z,15.38
2023-09-06T03:34:00.501Z,15.33
2023-09-06T03:39:06.983Z,15.28
2023-09-06T03:44:09.332Z,15.33
2023-09-06T03:49:11.857Z,15.19
2023-09-06T03:54:14.247Z,15.24
2023-09-06T03:59:17.851Z,15.18
2023-09-06T04:04:20.054Z,15.20
2023-09-06T04:09:29.020Z,15.11
2023-09-06T04:14:35.369Z,15.10
2023-09-06T04:19:37.626Z,15.07
2023-09-06T04:24:39.940Z,15.01
2023-09-06T04:29:42.233Z,15.02
2023-09-06T04:34:44.530Z,14.91
2023-09-06T04:39:46.837Z,15.02
2023-09-06T04:44:48.938Z,15.13
2023-09-06T04:49:51.037Z,15.25
2023-09-06T04:54:53.345Z,15.27
2023-09-06T04:59:55.489Z,15.34
2023-09-06T05:04:57.570Z,15.44
2023-09-06T05:09:59.713Z,15.51
2023-09-06T05:15:02.179Z,15.59
2023-09-06T05:20:29.048Z,15.69
2023-09-06T05:25:31.826Z,15.86
2023-09-06T05:30:34.132Z,15.92
2023-09-06T05:35:36.503Z,15.97
2023-09-06T05:40:41.695Z,16.02
2023-09-06T05:45:43.933Z,16.18
2023-09-06T05:50:46.228Z,16.23
2023-09-06T05:55:48.407Z,16.38
2023-09-06T06:00:54.723Z,16.48
2023-09-06T10:31:54.793Z,31.01
2023-09-06T10:36:59.320Z,31.01
2023-09-06T10:42:10.676Z,30.55
2023-09-06T10:47:28.891Z,30.89
2023-09-06T10:52:42.455Z,30.62
2023-09-06T10:57:49.803Z,31.08
2023-09-06T11:03:11.102Z,30.23
2023-09-06T11:08:25.593Z,30.34
2023-09-06T11:13:31.941Z,30.35
2023-09-06T11:18:52.100Z,30.49
2023-09-06T11:23:55.300Z,30.44
2023-09-06T11:29:05.090Z,30.30
2023-09-06T11:34:10.227Z,30.16
2023-09-06T11:39:20.579Z,29.50
2023-09-06T11:44:24.600Z,29.97
2023-09-06T11:49:27.213Z,30.23
2023-09-06T11:54:33.019Z,29.99
2023-09-06T11:59:35.463Z,29.90
2023-09-06T12:04:37.573Z,30.24
2023-09-06T12:09:39.765Z,30.43
2023-09-06T12:14:44.305Z,30.33
2023-09-06T12:19:47.275Z,30.62
2023-09-06T12:24:49.831Z,30.86
2023-09-06T12:29:52.073Z,31.08
2023-09-06T12:34:54.218Z,31.22
2023-09-06T12:39:56.544Z,31.22
2023-09-06T12:44:58.780Z,31.52
2023-09-06T12:50:02.873Z,31.56
2023-09-06T12:55:05.914Z,31.89
2023-09-06T13:00:11.456Z,32.30
2023-09-06T13:05:21.044Z,32.54
2023-09-06T13:10:23.542Z,32.51
2023-09-06T13:15:25.684Z,32.84
2023-09-06T13:20:27.811Z,33.05
2023-09-06T13:25:30.098Z,33.64
2023-09-06T13:30:32.452Z,34.18
2023-09-06T13:35:34.577Z,34.48
2023-09-06T13:40:36.929Z,34.87
2023-09-06T13:45:39.067Z,34.36
2023-09-06T13:50:41.152Z,34.57
2023-09-06T13:55:43.321Z,35.39
2023-09-06T14:00:45.450Z,35.77
2023-09-06T14:05:47.769Z,36.24
2023-09-06T14:10:54.356Z,36.35
2023-09-06T14:15:57.013Z,36.24
2023-09-06T14:20:59.275Z,36.28
2023-09-06T14:26:01.541Z,36.20
2023-09-06T14:31:03.678Z,36.35
2023-09-06T14:36:06.379Z,34.83
2023-09-06T14:41:08.735Z,35.23
2023-09-06T14:46:10.903Z,35.63
2023-09-06T14:51:15.171Z,35.62
2023-09-06T14:56:17.596Z,35.53
2023-09-06T15:01:20.015Z,34.95
2023-09-06T15:06:22.948Z,34.22
2023-09-06T15:11:25.115Z,33.51
2023-09-06T15:16:27.682Z,32.64
2023-09-06T15:21:29.924Z,31.63
2023-09-06T15:26:32.053Z,31.50
2023-09-06T15:31:34.260Z,30.80
2023-09-06T15:36:36.655Z,30.63
2023-09-06T15:41:40.006Z,30.34
2023-09-06T15:46:43.179Z,29.82
2023-09-06T15:51:45.379Z,29.58
2023-09-06T15:56:47.945Z,29.30
2023-09-06T16:01:50.251Z,28.89
2023-09-06T16:06:54.262Z,28.71
2023-09-06T16:11:57.746Z,28.54
2023-09-06T16:17:00.312Z,28.20
2023-09-06T16:22:05.710Z,27.91
2023-09-06T16:27:08.082Z,27.70
2023-09-06T16:32:11.331Z,27.43
2023-09-06T16:37:13.549Z,27.15
2023-09-06T16:42:17.357Z,26.94
2023-09-06T16:47:19.510Z,26.76
2023-09-06T16:52:21.669Z,26.46
2023-09-06T16:57:23.880Z,26.24
2023-09-06T17:02:26.095Z,25.99
2023-09-06T17:07:28.483Z,25.75
2023-09-06T17:12:30.659Z,25.59
2023-09-06T17:17:33.859Z,25.40
2023-09-06T17:22:36.133Z,25.15
2023-09-06T17:27:39.266Z,24.96
2023-09-06T17:32:42.731Z,24.81
2023-09-06T17:37:44.978Z,24.53
2023-09-06T17:42:47.883Z,24.49
2023-09-06T17:47:50.269Z,24.33
2023-09-06T17:52:52.556Z,24.15
2023-09-06T17:57:54.702Z,24.10
2023-09-06T18:03:01.294Z,24.05
2023-09-06T18:08:06.531Z,23.99
2023-09-06T18:13:12.146Z,23.68
2023-09-06T18:18:26.491Z,23.52
2023-09-06T18:23:29.095Z,23.34
2023-09-06T18:28:32.771Z,23.13
2023-09-06T18:33:35.092Z,23.05
2023-09-06T18:38:38.120Z,22.79
2023-09-06T18:43:40.948Z,22.72
2023-09-06T18:48:43.205Z,22.57
2023-09-06T18:53:45.466Z,22.52
2023-09-06T18:58:47.606Z,22.52
2023-09-06T19:03:49.869Z,22.34
2023-09-06T19:08:52.371Z,22.32
2023-09-06T19:13:54.706Z,22.27
2023-09-06T19:18:56.960Z,22.22
2023-09-06T19:23:59.221Z,22.21
2023-09-06T19:29:01.908Z,22.21
2023-09-06T19:34:05.459Z,22.09
2023-09-06T19:39:12.424Z,22.00
2023-09-06T19:44:14.803Z,21.98
2023-09-06T19:49:17.006Z,21.74
2023-09-06T19:54:19.848Z,21.50
2023-09-06T19:59:21.949Z,21.44
2023-09-06T20:04:24.217Z,21.32
2023-09-06T20:09:29.627Z,21.14
2023-09-06T20:14:32.582Z,20.95
2023-09-06T20:19:34.815Z,20.92
2023-09-06T20:24:36.957Z,20.84
2023-09-06T20:29:40.212Z,20.81
2023-09-06T20:34:43.577Z,20.82
2023-09-06T20:39:45.800Z,20.68
2023-09-06T20:44:48.173Z,20.62
2023-09-06T20:50:01.388Z,20.61
2023-09-06T20:55:05.663Z,20.38
2023-09-06T21:00:10.531Z,20.43
2023-09-06T21:05:12.716Z,20.32
2023-09-06T21:10:15.226Z,20.19
2023-09-06T21:15:17.519Z,20.17
2023-09-06T21:20:20.922Z,20.00
2023-09-06T21:25:23.325Z,19.86
2023-09-06T21:30:25.434Z,19.84
2023-09-06T21:35:30.338Z,19.66
2023-09-06T21:40:32.537Z,19.65
2023-09-06T21:45:36.815Z,19.53
2023-09-06T21:50:41.122Z,19.58
2023-09-06T21:55:43.426Z,19.46
2023-09-06T22:00:46.151Z,19.30
2023-09-06T22:05:49.629Z,19.15
2023-09-06T22:10:52.053Z,19.10
2023-09-06T22:15:54.809Z,19.13
2023-09-06T22:20:57.173Z,19.04
2023-09-06T22:26:00.026Z,18.86
2023-09-06T22:31:02.506Z,18.76
2023-09-06T22:36:04.762Z,18.66
2023-09-06T22:41:06.835Z,18.65
2023-09-06T22:46:09.243Z,18.51
2023-09-06T22:51:11.456Z,18.40
2023-09-06T22:56:13.609Z,18.38
2023-09-06T23:01:15.867Z,18.32
2023-09-06T23:06:18.197Z,18.22
2023-09-06T23:11:20.694Z,18.22
2023-09-06T23:16:23.569Z,18.08
2023-09-06T23:21:33.527Z,17.95
2023-09-06T23:26:37.857Z,17.96
2023-09-06T23:31:44.656Z,17.98
2023-09-06T23:36:47.041Z,17.86
2023-09-06T23:41:54.444Z,17.87
2023-09-06T23:46:57.783Z,17.84
2023-09-06T23:51:59.987Z,17.79
2023-09-06T23:57:03.886Z,17.67
